Sala, Sweden

3:32 AM CEST on August 29, 2014 (GMT +0200)
Ransta | Change Station
CLOSE
Current Station
Personal Weather Station
Location: V�stmanlands L�n, V�STMANLANDS L�N
Elevation: 187 ft
Nearby Weather Stations

Elev 187 ft 59.81 °N, 16.64 °E | Updated 2 minutes ago

Mostly Cloudy
Mostly Cloudy
54.1 °F
Feels Like 54.1 °F
N
1.0
Wind Variable Wind from NNW
Gusts 3.0 mph

Today
High -- | Low -- °F
--% Chance of Precip.
Yesterday
High -- | Low -- °F
Precip. -- in
5:40 AM 8:06 PM
Waxing Crescent, 11% visible
Pressure 29.98 in
Visibility 6.2 miles
Clouds Mostly Cloudy 8300 ft
Dew Point 52 °F
Humidity 91%
Rainfall 0.00 in
Snow Depth Not available.
UV 0 out of 12
Pollen Not available.
Air Quality Not available.
Flu Activity Not available.
METAR ESOW 290120Z AUTO 34003KT 9999NDV BKN083/// 11/10 Q1015

More Conditions Fewer Conditions

Pressure 29.98 in
Visibility 6.2 miles
Clouds Mostly Cloudy 8300 ft
Dew Point 52 °F
Humidity 91%
Rainfall 0.00 in
Snow Depth Not available.
UV 0 out of 12
Pollen Not available.
Air Quality Not available.
Flu Activity Not available.
METAR ESOW 290120Z AUTO 34003KT 9999NDV BKN083/// 11/10 Q1015

More Conditions Fewer Conditions

10-Day Weather Forecast

Almanac

Astronomy

Aug. 29, 2014 Rise Set
Actual Time 5:40 AM CEST 8:06 PM CEST
Civil Twilight 4:54 AM CEST 8:51 PM CEST
Nautical Twilight 3:54 AM CEST 9:51 PM CEST
Astronomical Twilight 2:31 AM CEST 11:11 PM CEST
Moon 10:17 AM CEST 8:45 PM CEST
Length of Visible Light 15h 56m
Length of Day
14h 25m
Tomorrow will be 5m 19s shorter.
Waxing Crescent, 11% of the Moon is Illuminated
Aug 28
Waxing Crescent
Sep 2
First Quarter
Sep 8
Full
Sep 15
Last Quarter
Sep 24
New

Yesterday's Extremes

Country Highs Country Lows

Community

WunderPhotos

Upload Photos

1,748,130 photos uploaded!

Nearby

Snow Depth

Not available.

Earthquake Activity

City Distance Mag. Time & Date
No recent earthquake activity has been reported nearby.
Minimum magnitude displayed is 2.5.

Coastal Water Temperatures

Place Temperature
No Stations Reporting

Nearby Weather Stations